sensor_id;sensor_type;location;lat;lon;timestamp;pressure;altitude;pressure_sealevel;temperature;humidity
50550;BME280;36505;52.512;13.460;2023-05-08T00:02:13;102169.59;;;6.97;79.18
50550;BME280;36505;52.512;13.460;2023-05-08T00:04:38;102172.53;;;6.96;79.24
50550;BME280;36505;52.512;13.460;2023-05-08T00:07:04;102180.56;;;6.89;79.46
50550;BME280;36505;52.512;13.460;2023-05-08T00:09:29;102163.66;;;6.79;79.82
50550;BME280;36505;52.512;13.460;2023-05-08T00:11:54;102171.00;;;6.79;79.68
50550;BME280;36505;52.512;13.460;2023-05-08T00:14:20;102165.09;;;6.75;79.84
50550;BME280;36505;52.512;13.460;2023-05-08T00:16:45;102149.84;;;6.66;80.55
50550;BME280;36505;52.512;13.460;2023-05-08T00:19:11;102161.59;;;6.66;80.41
50550;BME280;36505;52.512;13.460;2023-05-08T00:21:36;102167.03;;;6.66;80.79
50550;BME280;36505;52.512;13.460;2023-05-08T00:24:01;102165.88;;;6.61;81.12
50550;BME280;36505;52.512;13.460;2023-05-08T00:26:27;102175.94;;;6.60;81.18
50550;BME280;36505;52.512;13.460;2023-05-08T00:28:52;102172.25;;;6.53;81.41
50550;BME280;36505;52.512;13.460;2023-05-08T00:31:17;102171.88;;;6.56;81.56
50550;BME280;36505;52.512;13.460;2023-05-08T00:33:43;102180.47;;;6.45;81.57
50550;BME280;36505;52.512;13.460;2023-05-08T00:36:08;102180.13;;;6.48;81.75
50550;BME280;36505;52.512;13.460;2023-05-08T00:38:35;102173.84;;;6.48;81.82
50550;BME280;36505;52.512;13.460;2023-05-08T00:41:01;102176.22;;;6.43;82.00
50550;BME280;36505;52.512;13.460;2023-05-08T00:43:27;102185.81;;;6.39;82.44
50550;BME280;36505;52.512;13.460;2023-05-08T00:45:58;102184.28;;;6.36;82.05
50550;BME280;36505;52.512;13.460;2023-05-08T00:48:28;102182.97;;;6.32;81.77
50550;BME280;36505;52.512;13.460;2023-05-08T00:50:55;102188.75;;;6.29;82.02
50550;BME280;36505;52.512;13.460;2023-05-08T00:53:21;102188.09;;;6.27;82.25
50550;BME280;36505;52.512;13.460;2023-05-08T00:55:48;102188.63;;;6.22;81.99
50550;BME280;36505;52.512;13.460;2023-05-08T00:58:15;102187.31;;;6.18;82.10
50550;BME280;36505;52.512;13.460;2023-05-08T01:00:43;102192.94;;;6.17;82.33
50550;BME280;36505;52.512;13.460;2023-05-08T01:03:08;102188.88;;;6.13;82.19
50550;BME280;36505;52.512;13.460;2023-05-08T01:05:35;102192.34;;;6.07;82.35
50550;BME280;36505;52.512;13.460;2023-05-08T01:08:00;102187.53;;;6.09;82.51
50550;BME280;36505;52.512;13.460;2023-05-08T01:10:39;102189.59;;;6.07;82.37
50550;BME280;36505;52.512;13.460;2023-05-08T01:13:35;102188.94;;;6.05;82.46
50550;BME280;36505;52.512;13.460;2023-05-08T01:16:16;102186.94;;;5.99;82.41
50550;BME280;36505;52.512;13.460;2023-05-08T01:18:54;102192.66;;;6.04;82.55
50550;BME280;36505;52.512;13.460;2023-05-08T01:22:25;102193.22;;;5.99;82.60
50550;BME280;36505;52.512;13.460;2023-05-08T01:33:01;102186.13;;;5.90;82.86
50550;BME280;36505;52.512;13.460;2023-05-08T01:43:13;102194.97;;;5.84;83.27
50550;BME280;36505;52.512;13.460;2023-05-08T01:45:49;102193.81;;;5.78;82.92
50550;BME280;36505;52.512;13.460;2023-05-08T01:48:23;102200.09;;;5.79;83.24
50550;BME280;36505;52.512;13.460;2023-05-08T01:50:55;102195.84;;;5.76;83.24
50550;BME280;36505;52.512;13.460;2023-05-08T01:53:27;102200.13;;;5.71;83.33
50550;BME280;36505;52.512;13.460;2023-05-08T01:55:57;102197.59;;;5.69;83.39
50550;BME280;36505;52.512;13.460;2023-05-08T01:58:24;102208.47;;;5.69;83.51
50550;BME280;36505;52.512;13.460;2023-05-08T02:00:52;102202.72;;;5.64;83.59
50550;BME280;36505;52.512;13.460;2023-05-08T02:03:19;102208.16;;;5.64;83.36
50550;BME280;36505;52.512;13.460;2023-05-08T02:05:47;102208.16;;;5.64;83.31
50550;BME280;36505;52.512;13.460;2023-05-08T02:08:13;102195.91;;;5.60;83.76
50550;BME280;36505;52.512;13.460;2023-05-08T02:10:41;102215.47;;;5.55;83.63
50550;BME280;36505;52.512;13.460;2023-05-08T02:13:09;102218.88;;;5.57;83.67
50550;BME280;36505;52.512;13.460;2023-05-08T02:15:36;102213.63;;;5.56;83.58
50550;BME280;36505;52.512;13.460;2023-05-08T02:18:04;102198.22;;;5.40;83.57
50550;BME280;36505;52.512;13.460;2023-05-08T02:20:31;102216.53;;;5.46;84.04
50550;BME280;36505;52.512;13.460;2023-05-08T02:22:57;102208.22;;;5.40;83.78
50550;BME280;36505;52.512;13.460;2023-05-08T02:25:24;102205.34;;;5.33;84.21
50550;BME280;36505;52.512;13.460;2023-05-08T02:27:52;102208.75;;;5.35;84.03
50550;BME280;36505;52.512;13.460;2023-05-08T02:30:18;102208.94;;;5.34;84.02
50550;BME280;36505;52.512;13.460;2023-05-08T02:32:48;102202.47;;;5.35;83.92
50550;BME280;36505;52.512;13.460;2023-05-08T02:35:16;102202.84;;;5.32;83.83
50550;BME280;36505;52.512;13.460;2023-05-08T02:37:44;102204.88;;;5.30;84.16
50550;BME280;36505;52.512;13.460;2023-05-08T02:40:11;102191.63;;;5.27;83.98
50550;BME280;36505;52.512;13.460;2023-05-08T02:42:38;102197.75;;;5.29;83.42
50550;BME280;36505;52.512;13.460;2023-05-08T02:45:04;102192.00;;;5.24;83.79
50550;BME280;36505;52.512;13.460;2023-05-08T02:50:13;102197.06;;;5.27;83.50
50550;BME280;36505;52.512;13.460;2023-05-08T02:52:47;102196.59;;;5.23;83.48
50550;BME280;36505;52.512;13.460;2023-05-08T02:57:54;102203.50;;;5.26;83.44
50550;BME280;36505;52.512;13.460;2023-05-08T03:00:32;102194.03;;;5.22;83.66
50550;BME280;36505;52.512;13.460;2023-05-08T03:05:50;102198.28;;;5.16;83.54
50550;BME280;36505;52.512;13.460;2023-05-08T03:08:26;102210.69;;;5.19;83.78
50550;BME280;36505;52.512;13.460;2023-05-08T03:10:56;102199.16;;;5.16;83.83
50550;BME280;36505;52.512;13.460;2023-05-08T03:13:24;102210.00;;;5.16;84.04
50550;BME280;36505;52.512;13.460;2023-05-08T03:15:54;102206.59;;;5.14;83.93
50550;BME280;36505;52.512;13.460;2023-05-08T03:18:25;102203.91;;;5.14;84.10
50550;BME280;36505;52.512;13.460;2023-05-08T03:20:54;102211.34;;;5.12;84.16
50550;BME280;36505;52.512;13.460;2023-05-08T03:23:20;102201.88;;;5.08;84.15
50550;BME280;36505;52.512;13.460;2023-05-08T03:25:47;102206.81;;;5.05;84.39
50550;BME280;36505;52.512;13.460;2023-05-08T03:28:13;102210.19;;;5.07;84.68
50550;BME280;36505;52.512;13.460;2023-05-08T03:30:40;102205.78;;;5.06;84.55
50550;BME280;36505;52.512;13.460;2023-05-08T03:33:07;102218.50;;;5.05;84.67
50550;BME280;36505;52.512;13.460;2023-05-08T03:35:37;102205.97;;;5.04;84.69
50550;BME280;36505;52.512;13.460;2023-05-08T03:38:03;102202.56;;;5.02;84.97
50550;BME280;36505;52.512;13.460;2023-05-08T03:40:29;102193.41;;;4.95;84.96
50550;BME280;36505;52.512;13.460;2023-05-08T03:42:55;102189.38;;;4.91;84.98
50550;BME280;36505;52.512;13.460;2023-05-08T03:45:22;102202.06;;;4.99;85.31
50550;BME280;36505;52.512;13.460;2023-05-08T03:47:50;102215.13;;;5.03;84.81
50550;BME280;36505;52.512;13.460;2023-05-08T03:50:17;102212.41;;;5.03;84.87
50550;BME280;36505;52.512;13.460;2023-05-08T03:52:43;102213.44;;;5.02;84.96
50550;BME280;36505;52.512;13.460;2023-05-08T03:55:09;102223.28;;;5.03;85.15
50550;BME280;36505;52.512;13.460;2023-05-08T03:57:44;102218.00;;;5.02;85.01
50550;BME280;36505;52.512;13.460;2023-05-08T04:03:49;102223.22;;;5.20;84.25
50550;BME280;36505;52.512;13.460;2023-05-08T04:06:39;102223.56;;;5.25;84.05
50550;BME280;36505;52.512;13.460;2023-05-08T04:12:14;102227.06;;;5.49;82.63
50550;BME280;36505;52.512;13.460;2023-05-08T04:14:47;102232.34;;;5.35;83.05
50550;BME280;36505;52.512;13.460;2023-05-08T04:17:19;102230.81;;;5.32;83.25
50550;BME280;36505;52.512;13.460;2023-05-08T04:19:49;102234.91;;;5.36;83.13
50550;BME280;36505;52.512;13.460;2023-05-08T04:22:18;102221.31;;;5.36;82.62
50550;BME280;36505;52.512;13.460;2023-05-08T04:24:45;102231.97;;;5.46;82.50
50550;BME280;36505;52.512;13.460;2023-05-08T04:27:14;102234.34;;;5.49;82.21
50550;BME280;36505;52.512;13.460;2023-05-08T04:29:40;102226.72;;;5.52;82.10
50550;BME280;36505;52.512;13.460;2023-05-08T04:32:06;102237.19;;;5.64;81.89
50550;BME280;36505;52.512;13.460;2023-05-08T04:34:32;102238.34;;;5.69;81.23
50550;BME280;36505;52.512;13.460;2023-05-08T04:36:58;102238.88;;;5.73;80.60
50550;BME280;36505;52.512;13.460;2023-05-08T04:39:23;102246.97;;;5.89;80.11
50550;BME280;36505;52.512;13.460;2023-05-08T04:41:49;102243.88;;;6.00;79.88
50550;BME280;36505;52.512;13.460;2023-05-08T04:44:16;102248.72;;;6.13;78.85
50550;BME280;36505;52.512;13.460;2023-05-08T04:46:41;102243.59;;;6.18;78.17
50550;BME280;36505;52.512;13.460;2023-05-08T04:49:07;102245.19;;;6.58;76.75
50550;BME280;36505;52.512;13.460;2023-05-08T04:51:33;102265.16;;;7.25;74.06
50550;BME280;36505;52.512;13.460;2023-05-08T04:53:58;102250.16;;;8.39;69.27
50550;BME280;36505;52.512;13.460;2023-05-08T04:56:24;102258.22;;;9.79;63.64
50550;BME280;36505;52.512;13.460;2023-05-08T04:58:51;102269.59;;;8.93;66.47
50550;BME280;36505;52.512;13.460;2023-05-08T05:01:16;102262.13;;;8.80;66.73
50550;BME280;36505;52.512;13.460;2023-05-08T05:03:41;102268.41;;;9.99;62.19
50550;BME280;36505;52.512;13.460;2023-05-08T05:06:07;102272.69;;;10.95;59.36
50550;BME280;36505;52.512;13.460;2023-05-08T05:08:32;102276.28;;;11.28;57.37
50550;BME280;36505;52.512;13.460;2023-05-08T05:10:57;102266.81;;;11.04;57.42
50550;BME280;36505;52.512;13.460;2023-05-08T05:13:23;102269.50;;;10.78;58.28
50550;BME280;36505;52.512;13.460;2023-05-08T05:15:48;102264.88;;;10.92;57.64
50550;BME280;36505;52.512;13.460;2023-05-08T05:18:16;102278.38;;;11.53;56.47
50550;BME280;36505;52.512;13.460;2023-05-08T05:20:42;102271.78;;;12.38;53.40
50550;BME280;36505;52.512;13.460;2023-05-08T05:23:07;102283.59;;;13.32;50.39
50550;BME280;36505;52.512;13.460;2023-05-08T05:25:33;102278.09;;;13.57;49.44
50550;BME280;36505;52.512;13.460;2023-05-08T05:27:59;102279.19;;;14.11;47.59
50550;BME280;36505;52.512;13.460;2023-05-08T05:30:24;102269.28;;;15.93;43.89
50550;BME280;36505;52.512;13.460;2023-05-08T05:32:49;102282.84;;;13.87;47.19
50550;BME280;36505;52.512;13.460;2023-05-08T05:35:15;102281.50;;;13.53;48.73
50550;BME280;36505;52.512;13.460;2023-05-08T05:37:40;102276.78;;;15.69;43.94
50550;BME280;36505;52.512;13.460;2023-05-08T05:40:06;102281.72;;;17.20;40.32
50550;BME280;36505;52.512;13.460;2023-05-08T05:42:31;102265.44;;;18.17;37.92
50550;BME280;36505;52.512;13.460;2023-05-08T05:44:57;102264.13;;;18.96;36.64
50550;BME280;36505;52.512;13.460;2023-05-08T05:47:23;102291.28;;;18.45;35.95
50550;BME280;36505;52.512;13.460;2023-05-08T05:49:48;102279.56;;;17.39;37.80
50550;BME280;36505;52.512;13.460;2023-05-08T05:52:14;102270.66;;;18.36;35.79
50550;BME280;36505;52.512;13.460;2023-05-08T05:54:39;102279.88;;;17.98;36.49
50550;BME280;36505;52.512;13.460;2023-05-08T05:57:05;102268.75;;;19.17;35.12
50550;BME280;36505;52.512;13.460;2023-05-08T05:59:32;102299.63;;;18.01;35.96
50550;BME280;36505;52.512;13.460;2023-05-08T06:01:57;102281.31;;;17.12;37.54
50550;BME280;36505;52.512;13.460;2023-05-08T06:04:22;102304.53;;;17.94;36.40
50550;BME280;36505;52.512;13.460;2023-05-08T06:06:48;102295.56;;;17.87;36.00
50550;BME280;36505;52.512;13.460;2023-05-08T06:09:13;102284.09;;;18.00;36.21
50550;BME280;36505;52.512;13.460;2023-05-08T06:11:40;102290.28;;;17.35;37.25
50550;BME280;36505;52.512;13.460;2023-05-08T06:14:06;102283.47;;;17.60;37.08
50550;BME280;36505;52.512;13.460;2023-05-08T06:16:32;102286.69;;;17.18;36.64
50550;BME280;36505;52.512;13.460;2023-05-08T06:18:57;102281.97;;;17.35;37.05
50550;BME280;36505;52.512;13.460;2023-05-08T06:21:22;102289.22;;;18.57;34.86
50550;BME280;36505;52.512;13.460;2023-05-08T06:23:48;102280.03;;;18.08;35.07
50550;BME280;36505;52.512;13.460;2023-05-08T06:26:13;102284.78;;;18.12;35.02
50550;BME280;36505;52.512;13.460;2023-05-08T06:28:39;102295.44;;;17.99;34.62
50550;BME280;36505;52.512;13.460;2023-05-08T06:31:04;102292.69;;;17.82;34.55
50550;BME280;36505;52.512;13.460;2023-05-08T06:33:30;102287.69;;;17.29;34.94
50550;BME280;36505;52.512;13.460;2023-05-08T06:35:55;102295.38;;;17.94;34.82
50550;BME280;36505;52.512;13.460;2023-05-08T06:38:21;102287.78;;;17.89;34.46
50550;BME280;36505;52.512;13.460;2023-05-08T06:40:46;102290.84;;;18.31;34.44
50550;BME280;36505;52.512;13.460;2023-05-08T06:43:14;102285.44;;;19.22;33.33
50550;BME280;36505;52.512;13.460;2023-05-08T06:45:39;102282.28;;;18.33;33.06
50550;BME280;36505;52.512;13.460;2023-05-08T06:48:05;102284.34;;;17.99;34.08
50550;BME280;36505;52.512;13.460;2023-05-08T06:50:31;102281.53;;;18.42;33.45
50550;BME280;36505;52.512;13.460;2023-05-08T06:52:56;102285.94;;;18.38;33.71
50550;BME280;36505;52.512;13.460;2023-05-08T06:55:22;102283.38;;;18.80;32.51
50550;BME280;36505;52.512;13.460;2023-05-08T06:57:47;102280.78;;;18.96;31.63
50550;BME280;36505;52.512;13.460;2023-05-08T07:00:13;102286.25;;;19.49;32.03
50550;BME280;36505;52.512;13.460;2023-05-08T07:02:38;102306.94;;;19.68;31.12
50550;BME280;36505;52.512;13.460;2023-05-08T07:05:04;102290.16;;;19.95;30.88
50550;BME280;36505;52.512;13.460;2023-05-08T07:07:30;102302.50;;;19.72;29.99
50550;BME280;36505;52.512;13.460;2023-05-08T07:09:55;102296.53;;;18.90;31.70
50550;BME280;36505;52.512;13.460;2023-05-08T07:12:20;102286.03;;;18.97;31.31
50550;BME280;36505;52.512;13.460;2023-05-08T07:14:46;102281.47;;;19.45;30.91
50550;BME280;36505;52.512;13.460;2023-05-08T07:17:11;102282.63;;;19.49;30.57
50550;BME280;36505;52.512;13.460;2023-05-08T07:19:37;102284.22;;;19.82;29.90
50550;BME280;36505;52.512;13.460;2023-05-08T07:22:03;102293.69;;;18.58;31.67
50550;BME280;36505;52.512;13.460;2023-05-08T07:24:29;102301.75;;;17.94;32.53
50550;BME280;36505;52.512;13.460;2023-05-08T07:26:54;102292.72;;;18.04;32.99
50550;BME280;36505;52.512;13.460;2023-05-08T07:29:20;102284.19;;;18.54;31.52
50550;BME280;36505;52.512;13.460;2023-05-08T07:31:45;102295.97;;;18.61;31.35
50550;BME280;36505;52.512;13.460;2023-05-08T07:34:12;102291.47;;;18.82;31.12
50550;BME280;36505;52.512;13.460;2023-05-08T07:36:38;102289.47;;;19.41;30.10
50550;BME280;36505;52.512;13.460;2023-05-08T07:39:04;102293.41;;;19.13;30.14
50550;BME280;36505;52.512;13.460;2023-05-08T07:41:29;102297.97;;;20.03;28.69
50550;BME280;36505;52.512;13.460;2023-05-08T07:43:55;102277.25;;;19.37;29.28
50550;BME280;36505;52.512;13.460;2023-05-08T07:46:20;102282.63;;;19.91;29.05
50550;BME280;36505;52.512;13.460;2023-05-08T07:48:46;102285.53;;;19.64;28.93
50550;BME280;36505;52.512;13.460;2023-05-08T07:51:12;102278.25;;;20.05;28.36
50550;BME280;36505;52.512;13.460;2023-05-08T07:53:38;102289.56;;;20.45;28.14
50550;BME280;36505;52.512;13.460;2023-05-08T07:56:04;102286.31;;;21.09;27.39
50550;BME280;36505;52.512;13.460;2023-05-08T07:58:30;102268.50;;;21.10;27.30
50550;BME280;36505;52.512;13.460;2023-05-08T08:00:55;102285.50;;;21.70;26.44
50550;BME280;36505;52.512;13.460;2023-05-08T08:03:20;102286.47;;;20.37;27.72
50550;BME280;36505;52.512;13.460;2023-05-08T08:05:46;102272.53;;;19.80;28.41
50550;BME280;36505;52.512;13.460;2023-05-08T08:08:11;102288.38;;;20.31;27.68
50550;BME280;36505;52.512;13.460;2023-05-08T08:10:37;102265.78;;;21.36;27.58
50550;BME280;36505;52.512;13.460;2023-05-08T08:13:03;102273.25;;;21.50;26.17
50550;BME280;36505;52.512;13.460;2023-05-08T08:15:29;102264.25;;;21.94;25.16
50550;BME280;36505;52.512;13.460;2023-05-08T08:17:55;102271.03;;;21.47;25.82
50550;BME280;36505;52.512;13.460;2023-05-08T08:20:20;102271.78;;;20.52;26.53
50550;BME280;36505;52.512;13.460;2023-05-08T08:22:46;102265.72;;;21.00;26.45
50550;BME280;36505;52.512;13.460;2023-05-08T08:25:11;102267.38;;;21.67;25.19
50550;BME280;36505;52.512;13.460;2023-05-08T08:27:37;102260.97;;;21.56;25.08
50550;BME280;36505;52.512;13.460;2023-05-08T08:32:28;102266.78;;;22.55;23.85
50550;BME280;36505;52.512;13.460;2023-05-08T08:34:54;102257.56;;;22.54;23.75
50550;BME280;36505;52.512;13.460;2023-05-08T08:37:19;102273.72;;;22.62;23.93
50550;BME280;36505;52.512;13.460;2023-05-08T08:39:44;102256.69;;;23.03;22.69
50550;BME280;36505;52.512;13.460;2023-05-08T08:42:10;102247.78;;;22.57;23.41
50550;BME280;36505;52.512;13.460;2023-05-08T08:44:36;102273.44;;;21.94;23.81
50550;BME280;36505;52.512;13.460;2023-05-08T08:47:03;102263.25;;;21.34;23.90
50550;BME280;36505;52.512;13.460;2023-05-08T08:49:41;102265.72;;;21.51;24.16
50550;BME280;36505;52.512;13.460;2023-05-08T08:52:30;102260.94;;;21.72;23.75
50550;BME280;36505;52.512;13.460;2023-05-08T08:54:59;102256.47;;;21.81;23.09
50550;BME280;36505;52.512;13.460;2023-05-08T08:57:26;102261.00;;;21.11;23.92
50550;BME280;36505;52.512;13.460;2023-05-08T08:59:53;102288.78;;;20.65;24.19
50550;BME280;36505;52.512;13.460;2023-05-08T09:02:20;102268.78;;;21.04;23.93
50550;BME280;36505;52.512;13.460;2023-05-08T09:04:48;102271.31;;;21.46;23.48
50550;BME280;36505;52.512;13.460;2023-05-08T09:07:14;102250.66;;;20.71;24.61
50550;BME280;36505;52.512;13.460;2023-05-08T09:09:39;102255.22;;;20.20;24.11
50550;BME280;36505;52.512;13.460;2023-05-08T09:12:05;102252.75;;;19.34;25.53
50550;BME280;36505;52.512;13.460;2023-05-08T09:14:31;102255.03;;;19.37;26.08
50550;BME280;36505;52.512;13.460;2023-05-08T09:16:57;102248.19;;;18.86;26.92
50550;BME280;36505;52.512;13.460;2023-05-08T09:19:22;102246.38;;;18.97;27.08
50550;BME280;36505;52.512;13.460;2023-05-08T09:21:50;102249.47;;;19.05;27.39
50550;BME280;36505;52.512;13.460;2023-05-08T09:24:16;102273.91;;;18.06;27.72
50550;BME280;36505;52.512;13.460;2023-05-08T09:26:41;102274.19;;;17.32;29.30
50550;BME280;36505;52.512;13.460;2023-05-08T09:29:16;102260.91;;;16.84;30.07
50550;BME280;36505;52.512;13.460;2023-05-08T09:31:49;102240.03;;;17.10;30.55
50550;BME280;36505;52.512;13.460;2023-05-08T09:37:13;102256.06;;;17.08;30.69
50550;BME280;36505;52.512;13.460;2023-05-08T09:39:39;102239.19;;;16.76;31.44
50550;BME280;36505;52.512;13.460;2023-05-08T09:42:06;102234.28;;;16.67;31.76
50550;BME280;36505;52.512;13.460;2023-05-08T09:47:15;102245.34;;;16.67;32.43
50550;BME280;36505;52.512;13.460;2023-05-08T09:50:01;102250.75;;;17.07;32.30
50550;BME280;36505;52.512;13.460;2023-05-08T09:52:28;102245.34;;;17.12;31.34
50550;BME280;36505;52.512;13.460;2023-05-08T09:55:11;102208.16;;;17.08;30.22
50550;BME280;36505;52.512;13.460;2023-05-08T09:57:38;102250.44;;;16.58;31.23
50550;BME280;36505;52.512;13.460;2023-05-08T10:02:31;102241.25;;;16.41;31.64
50550;BME280;36505;52.512;13.460;2023-05-08T10:04:56;102237.25;;;16.20;32.00
50550;BME280;36505;52.512;13.460;2023-05-08T10:07:29;102236.91;;;16.16;31.99
50550;BME280;36505;52.512;13.460;2023-05-08T10:10:00;102227.94;;;16.09;31.32
50550;BME280;36505;52.512;13.460;2023-05-08T10:12:26;102243.00;;;16.18;30.41
50550;BME280;36505;52.512;13.460;2023-05-08T10:14:52;102239.13;;;16.03;30.93
50550;BME280;36505;52.512;13.460;2023-05-08T10:17:24;102248.66;;;15.72;30.57
50550;BME280;36505;52.512;13.460;2023-05-08T10:19:54;102237.34;;;15.85;30.68
50550;BME280;36505;52.512;13.460;2023-05-08T10:22:23;102246.97;;;15.71;30.36
50550;BME280;36505;52.512;13.460;2023-05-08T10:24:55;102237.97;;;15.40;30.63
50550;BME280;36505;52.512;13.460;2023-05-08T10:27:33;102231.38;;;15.41;30.80
50550;BME280;36505;52.512;13.460;2023-05-08T10:30:03;102225.97;;;15.47;31.43
50550;BME280;36505;52.512;13.460;2023-05-08T10:32:36;102219.63;;;15.58;31.57
50550;BME280;36505;52.512;13.460;2023-05-08T10:35:07;102225.13;;;15.58;31.32
50550;BME280;36505;52.512;13.460;2023-05-08T10:37:33;102243.28;;;15.54;31.18
50550;BME280;36505;52.512;13.460;2023-05-08T10:40:01;102211.78;;;15.43;31.28
50550;BME280;36505;52.512;13.460;2023-05-08T10:42:28;102220.34;;;15.41;31.54
50550;BME280;36505;52.512;13.460;2023-05-08T10:44:55;102214.84;;;15.53;31.48
50550;BME280;36505;52.512;13.460;2023-05-08T10:47:26;102222.25;;;15.29;31.97
50550;BME280;36505;52.512;13.460;2023-05-08T10:49:59;102216.84;;;15.23;32.29
50550;BME280;36505;52.512;13.460;2023-05-08T10:55:17;102211.09;;;15.24;32.52
50550;BME280;36505;52.512;13.460;2023-05-08T11:03:24;102186.72;;;15.33;32.02
50550;BME280;36505;52.512;13.460;2023-05-08T11:05:51;102195.34;;;15.36;31.95
50550;BME280;36505;52.512;13.460;2023-05-08T11:08:19;102215.41;;;15.32;31.80
50550;BME280;36505;52.512;13.460;2023-05-08T11:10:51;102197.78;;;15.21;31.69
50550;BME280;36505;52.512;13.460;2023-05-08T11:13:31;102197.53;;;15.23;31.84
50550;BME280;36505;52.512;13.460;2023-05-08T11:15:57;102180.75;;;15.13;32.61
50550;BME280;36505;52.512;13.460;2023-05-08T11:18:22;102178.09;;;15.18;32.20
50550;BME280;36505;52.512;13.460;2023-05-08T11:21:01;102198.13;;;15.13;31.79
50550;BME280;36505;52.512;13.460;2023-05-08T11:23:35;102187.91;;;15.02;31.46
50550;BME280;36505;52.512;13.460;2023-05-08T11:28:33;102180.38;;;15.21;31.47
50550;BME280;36505;52.512;13.460;2023-05-08T11:31:02;102178.22;;;15.34;31.42
50550;BME280;36505;52.512;13.460;2023-05-08T11:33:33;102181.31;;;15.38;31.56
50550;BME280;36505;52.512;13.460;2023-05-08T11:36:13;102176.66;;;15.15;31.51
50550;BME280;36505;52.512;13.460;2023-05-08T11:38:40;102180.97;;;15.11;32.22
50550;BME280;36505;52.512;13.460;2023-05-08T11:41:25;102199.31;;;15.17;32.31
50550;BME280;36505;52.512;13.460;2023-05-08T11:46:51;102166.56;;;15.09;31.61
50550;BME280;36505;52.512;13.460;2023-05-08T11:49:18;102166.59;;;15.21;31.98
50550;BME280;36505;52.512;13.460;2023-05-08T11:51:45;102168.72;;;15.30;31.65
50550;BME280;36505;52.512;13.460;2023-05-08T11:54:12;102189.25;;;15.34;31.70
50550;BME280;36505;52.512;13.460;2023-05-08T11:56:38;102172.56;;;15.29;31.44
50550;BME280;36505;52.512;13.460;2023-05-08T11:59:04;102174.63;;;15.11;31.60
50550;BME280;36505;52.512;13.460;2023-05-08T12:01:31;102151.22;;;15.13;31.64
50550;BME280;36505;52.512;13.460;2023-05-08T12:04:04;102181.69;;;15.18;31.33
50550;BME280;36505;52.512;13.460;2023-05-08T12:06:30;102158.91;;;15.11;31.12
50550;BME280;36505;52.512;13.460;2023-05-08T12:08:57;102156.53;;;15.15;31.53
50550;BME280;36505;52.512;13.460;2023-05-08T12:11:23;102166.47;;;15.27;31.91
50550;BME280;36505;52.512;13.460;2023-05-08T12:13:50;102158.91;;;15.34;31.58
50550;BME280;36505;52.512;13.460;2023-05-08T12:16:15;102165.25;;;15.35;30.89
50550;BME280;36505;52.512;13.460;2023-05-08T12:18:41;102155.03;;;15.35;31.47
50550;BME280;36505;52.512;13.460;2023-05-08T12:21:09;102142.22;;;15.41;31.54
50550;BME280;36505;52.512;13.460;2023-05-08T12:23:35;102156.47;;;15.38;31.39
50550;BME280;36505;52.512;13.460;2023-05-08T12:26:02;102140.28;;;15.30;32.22
50550;BME280;36505;52.512;13.460;2023-05-08T12:28:29;102146.00;;;15.52;30.02
50550;BME280;36505;52.512;13.460;2023-05-08T12:30:58;102140.63;;;15.57;29.62
50550;BME280;36505;52.512;13.460;2023-05-08T12:33:24;102167.25;;;15.63;29.75
50550;BME280;36505;52.512;13.460;2023-05-08T12:35:49;102158.97;;;15.51;29.70
50550;BME280;36505;52.512;13.460;2023-05-08T12:38:15;102137.16;;;15.38;30.50
50550;BME280;36505;52.512;13.460;2023-05-08T12:40:42;102153.47;;;15.39;30.75
50550;BME280;36505;52.512;13.460;2023-05-08T12:43:08;102135.47;;;15.37;30.43
50550;BME280;36505;52.512;13.460;2023-05-08T12:45:39;102150.22;;;15.42;30.04
50550;BME280;36505;52.512;13.460;2023-05-08T12:48:09;102157.91;;;15.52;30.39
50550;BME280;36505;52.512;13.460;2023-05-08T12:50:36;102140.16;;;15.60;28.72
50550;BME280;36505;52.512;13.460;2023-05-08T12:53:03;102131.63;;;15.61;28.49
50550;BME280;36505;52.512;13.460;2023-05-08T12:55:30;102125.13;;;15.67;28.65
50550;BME280;36505;52.512;13.460;2023-05-08T12:58:11;102129.91;;;15.72;28.59
50550;BME280;36505;52.512;13.460;2023-05-08T13:00:44;102124.97;;;15.74;28.24
50550;BME280;36505;52.512;13.460;2023-05-08T13:03:11;102123.06;;;15.63;28.83
50550;BME280;36505;52.512;13.460;2023-05-08T13:05:41;102111.56;;;15.66;29.79
50550;BME280;36505;52.512;13.460;2023-05-08T13:08:08;102122.31;;;15.79;30.00
50550;BME280;36505;52.512;13.460;2023-05-08T13:10:54;102127.22;;;15.89;29.50
50550;BME280;36505;52.512;13.460;2023-05-08T13:13:24;102107.53;;;15.85;29.88
50550;BME280;36505;52.512;13.460;2023-05-08T13:15:52;102097.69;;;15.77;30.09
50550;BME280;36505;52.512;13.460;2023-05-08T13:18:18;102107.53;;;15.85;29.11
50550;BME280;36505;52.512;13.460;2023-05-08T13:20:44;102099.22;;;15.85;28.35
50550;BME280;36505;52.512;13.460;2023-05-08T13:23:10;102108.44;;;15.91;28.47
50550;BME280;36505;52.512;13.460;2023-05-08T13:25:36;102094.50;;;15.97;28.89
50550;BME280;36505;52.512;13.460;2023-05-08T13:28:03;102084.44;;;15.91;28.24
50550;BME280;36505;52.512;13.460;2023-05-08T13:30:29;102086.03;;;15.87;29.07
50550;BME280;36505;52.512;13.460;2023-05-08T13:32:54;102058.19;;;15.77;29.33
50550;BME280;36505;52.512;13.460;2023-05-08T13:35:20;102071.13;;;15.88;29.42
50550;BME280;36505;52.512;13.460;2023-05-08T13:37:46;102086.31;;;16.02;29.26
50550;BME280;36505;52.512;13.460;2023-05-08T13:40:13;102078.03;;;16.02;28.53
50550;BME280;36505;52.512;13.460;2023-05-08T13:42:39;102083.03;;;16.05;28.47